Aasiaat

KL  EN  DA
ASIAQ
Weather Now GREENLAND SURVEY
Updated [WGT/WGST] Temperature [°C] Wind [m/s] Air pressure [hPa] Relative humidity [%] Precipitation [mm]
Present Wind chill Speed Max
20.04 16:00-1,20,00,3 ⇑1,01000360,0
20.04 15:00-4,40,00,7 ⇑1,01000390,0
20.04 14:00-4,80,01,2 ⇖1,51000380,0
20.04 13:00-4,90,01,0 ⇖1,51000390,0
20.04 12:00-5,9-8,61,6 ⇖2,11000450,0
20.04 11:00-7,1-11,02,2 ⇐3,11000540,0
20.04 10:00-7,1-9,91,5 ⇐2,61000530,0
20.04 09:00-8,60,00,8 ⇖1,51000520,0
20.04 08:00-9,4-14,72,9 ⇖3,61000560,0
20.04 07:00-9,8-15,93,5 ⇖4,61000580,0
20.04 06:00-9,8-16,54,2 ⇐5,11000620,0
20.04 05:00-10,7-17,33,9 ⇐4,61000710,0
20.04 04:00-9,9-16,13,7 ⇐4,11000710,0
20.04 03:00-9,5-15,73,7 ⇖4,11000700,0
20.04 02:00-9,8-16,03,7 ⇖4,61000700,0
20.04 01:00-7,1-13,24,2 ⇙5,11001670,0
20.04 00:00-7,5-12,83,3 ⇐4,61001690,0
19.04 23:00-6,4-12,95,0 ⇙6,21002690,0
19.04 22:00-6,1-12,54,9 ⇙6,71002690,0
19.04 21:00-6,3-12,54,7 ⇙7,21002650,0
19.04 20:00-5,9-12,24,9 ⇙6,71003610,0
19.04 19:00-5,9-12,24,9 ⇙6,21003610,0
19.04 18:00-5,8-11,94,7 ⇙6,21003630,0
19.04 17:00-5,9-12,35,0 ⇙6,71003650,0
19.04 16:00-6,1-12,34,7 ⇙6,21003640,0
Position: (68.7166666666,-52.78333333)

[Back]